createdAt,value
2023-02-15T00:02:26.745Z,4.88
2023-02-15T00:05:30.389Z,3.95
2023-02-15T00:08:32.605Z,3.35
2023-02-15T00:11:52.590Z,3.80
2023-02-15T00:14:54.292Z,4.43
2023-02-15T00:17:57.778Z,4.35
2023-02-15T00:21:03.707Z,3.03
2023-02-15T00:24:07.946Z,2.88
2023-02-15T00:27:10.232Z,4.38
2023-02-15T00:30:13.061Z,3.05
2023-02-15T00:33:16.143Z,1.75
2023-02-15T00:36:17.955Z,2.85
2023-02-15T00:39:20.538Z,4.18
2023-02-15T00:42:22.411Z,3.00
2023-02-15T00:45:24.239Z,4.28
2023-02-15T00:48:28.731Z,3.25
2023-02-15T00:51:31.721Z,4.43
2023-02-15T00:54:33.431Z,3.75
2023-02-15T00:57:35.105Z,4.05
2023-02-15T01:00:38.134Z,4.03
2023-02-15T01:03:42.606Z,4.38
2023-02-15T01:06:44.929Z,6.50
2023-02-15T01:09:46.799Z,3.17
2023-02-15T01:12:48.846Z,3.30
2023-02-15T01:15:54.518Z,4.25
2023-02-15T01:18:58.285Z,2.88
2023-02-15T01:22:00.006Z,2.75
2023-02-15T01:25:01.895Z,3.58
2023-02-15T01:28:05.496Z,4.03
2023-02-15T01:31:09.100Z,3.50
2023-02-15T01:34:12.205Z,4.03
2023-02-15T01:37:14.257Z,3.63
2023-02-15T01:40:18.643Z,3.50
2023-02-15T01:43:20.649Z,4.43
2023-02-15T01:46:27.752Z,4.30
2023-02-15T01:49:32.069Z,4.25
2023-02-15T01:52:35.654Z,1.88
2023-02-15T01:55:42.353Z,4.32
2023-02-15T01:58:45.045Z,4.15
2023-02-15T02:01:47.570Z,3.42
2023-02-15T02:04:52.980Z,4.90
2023-02-15T02:07:58.348Z,4.20
2023-02-15T02:11:00.139Z,2.58
2023-02-15T02:14:02.100Z,4.50
2023-02-15T02:17:14.344Z,4.00
2023-02-15T02:20:38.194Z,4.15
2023-02-15T02:27:10.667Z,3.95
2023-02-15T02:30:41.272Z,4.28
2023-02-15T02:33:55.103Z,3.40
2023-02-15T02:37:03.530Z,3.28
2023-02-15T02:40:13.963Z,4.18
2023-02-15T02:43:21.885Z,3.05
2023-02-15T02:46:29.127Z,3.60
2023-02-15T02:49:34.418Z,3.40
2023-02-15T02:52:39.717Z,2.42
2023-02-15T02:55:46.366Z,3.15
2023-02-15T02:58:52.125Z,3.33
2023-02-15T03:02:01.392Z,2.97
2023-02-15T03:05:09.813Z,3.33
2023-02-15T03:08:14.793Z,3.50
2023-02-15T03:11:16.967Z,3.83
2023-02-15T03:14:20.228Z,3.80
2023-02-15T03:17:25.540Z,2.75
2023-02-15T03:20:32.738Z,3.03
2023-02-15T03:23:38.275Z,3.05
2023-02-15T03:26:43.848Z,3.72
2023-02-15T03:29:47.447Z,3.33
2023-02-15T03:32:50.717Z,2.63
2023-02-15T03:35:59.391Z,3.20
2023-02-15T03:39:08.486Z,3.13
2023-02-15T03:42:14.886Z,3.05
2023-02-15T03:45:22.247Z,3.25
2023-02-15T03:48:28.626Z,3.70
2023-02-15T03:51:38.852Z,3.70
2023-02-15T03:54:44.369Z,3.85
2023-02-15T03:58:05.247Z,4.50
2023-02-15T04:01:33.129Z,3.28
2023-02-15T04:04:37.592Z,3.40
2023-02-15T04:07:40.625Z,3.25
2023-02-15T04:10:54.366Z,3.63
2023-02-15T04:13:57.531Z,3.38
2023-02-15T04:16:59.292Z,3.47
2023-02-15T04:20:19.936Z,3.47
2023-02-15T04:23:41.380Z,3.03
2023-02-15T04:26:43.101Z,3.45
2023-02-15T04:29:44.752Z,5.07
2023-02-15T04:32:46.758Z,3.10
2023-02-15T04:35:48.412Z,4.13
2023-02-15T04:38:51.539Z,3.78
2023-02-15T04:41:53.281Z,3.97
2023-02-15T04:44:55.206Z,3.42
2023-02-15T04:47:57.056Z,3.47
2023-02-15T04:50:58.782Z,3.88
2023-02-15T04:54:01.772Z,4.45
2023-02-15T04:57:03.600Z,3.33
2023-02-15T05:00:09.765Z,3.42
2023-02-15T05:03:11.379Z,4.07
2023-02-15T05:06:13.074Z,3.80
2023-02-15T05:09:16.663Z,3.80
2023-02-15T05:12:18.300Z,4.32
2023-02-15T05:15:19.936Z,2.97
2023-02-15T05:18:22.810Z,3.58
2023-02-15T05:21:24.501Z,3.13
2023-02-15T05:24:46.330Z,3.42
2023-02-15T05:28:06.814Z,3.75
2023-02-15T05:31:11.356Z,4.40
2023-02-15T05:34:13.194Z,4.97
2023-02-15T05:37:14.999Z,2.90
2023-02-15T05:40:18.409Z,3.25
2023-02-15T05:43:20.360Z,3.83
2023-02-15T05:46:22.203Z,3.38
2023-02-15T05:49:23.887Z,3.22
2023-02-15T05:52:25.790Z,3.05
2023-02-15T05:55:28.877Z,4.32
2023-02-15T05:58:33.118Z,4.88
2023-02-15T06:01:34.803Z,3.20
2023-02-15T06:04:36.585Z,3.58
2023-02-15T06:07:38.495Z,4.07
2023-02-15T06:10:41.471Z,4.57
2023-02-15T06:13:43.308Z,2.67
2023-02-15T06:16:45.169Z,3.03
2023-02-15T06:19:46.963Z,3.08
2023-02-15T06:22:48.616Z,3.67
2023-02-15T06:25:51.663Z,3.90
2023-02-15T06:28:53.539Z,3.38
2023-02-15T06:31:55.331Z,3.25
2023-02-15T06:34:57.092Z,3.28
2023-02-15T06:37:58.814Z,3.58
2023-02-15T06:41:01.904Z,3.70
2023-02-15T06:44:04.031Z,3.67
2023-02-15T06:47:05.785Z,3.55
2023-02-15T06:50:08.665Z,2.53
2023-02-15T06:53:10.368Z,4.35
2023-02-15T06:56:13.952Z,4.00
2023-02-15T06:59:15.662Z,3.75
2023-02-15T07:02:17.388Z,4.22
2023-02-15T07:05:19.084Z,4.38
2023-02-15T07:08:21.061Z,5.03
2023-02-15T07:11:43.155Z,3.53
2023-02-15T07:14:44.897Z,3.53
2023-02-15T07:17:46.664Z,4.00
2023-02-15T07:20:48.476Z,4.57
2023-02-15T07:23:50.580Z,3.42
2023-02-15T07:26:53.738Z,4.28
2023-02-15T07:29:55.573Z,3.70
2023-02-15T07:33:15.901Z,2.60
2023-02-15T07:36:17.553Z,2.88
2023-02-15T07:39:19.163Z,3.38
2023-02-15T07:42:22.957Z,3.50
2023-02-15T07:45:24.798Z,3.45
2023-02-15T07:48:26.727Z,3.50
2023-02-15T07:51:28.347Z,3.08
2023-02-15T07:54:30.047Z,4.55
2023-02-15T07:57:33.183Z,3.97
2023-02-15T08:00:54.779Z,4.15
2023-02-15T08:03:57.885Z,3.58
2023-02-15T08:06:59.586Z,3.80
2023-02-15T08:10:01.382Z,3.13
2023-02-15T08:13:04.465Z,3.92
2023-02-15T08:16:06.524Z,3.70
2023-02-15T08:19:10.031Z,3.70
2023-02-15T08:22:14.021Z,3.78
2023-02-15T08:25:35.743Z,3.78
2023-02-15T08:28:39.977Z,4.07
2023-02-15T08:31:42.585Z,4.05
2023-02-15T08:34:44.480Z,4.22
2023-02-15T08:37:46.518Z,2.67
2023-02-15T08:40:48.272Z,4.40
2023-02-15T08:43:53.404Z,3.10
2023-02-15T08:46:55.706Z,3.28
2023-02-15T08:49:57.429Z,3.45
2023-02-15T08:52:59.064Z,4.45
2023-02-15T08:56:01.021Z,4.03
2023-02-15T08:59:04.992Z,3.25
2023-02-15T09:02:06.751Z,3.03
2023-02-15T09:05:08.616Z,4.30
2023-02-15T09:08:10.496Z,4.05
2023-02-15T09:11:17.548Z,4.32
2023-02-15T09:14:22.504Z,4.80
2023-02-15T09:17:24.318Z,3.92
2023-02-15T09:20:26.066Z,4.28
2023-02-15T09:23:28.976Z,4.85
2023-02-15T09:26:32.307Z,4.22
2023-02-15T09:29:35.542Z,4.57
2023-02-15T09:32:37.217Z,4.65
2023-02-15T09:35:39.007Z,4.72
2023-02-15T09:38:40.668Z,4.70
2023-02-15T09:42:14.814Z,6.07
2023-02-15T09:46:09.208Z,4.28
2023-02-15T09:49:20.614Z,5.28
2023-02-15T09:52:34.833Z,5.25
2023-02-15T09:55:46.580Z,5.10
2023-02-15T09:58:58.761Z,4.82
2023-02-15T10:02:21.614Z,4.43
2023-02-15T10:05:30.801Z,5.32
2023-02-15T10:09:01.341Z,5.47
2023-02-15T10:12:16.177Z,2.47
2023-02-15T10:15:30.480Z,5.18
2023-02-15T10:18:51.955Z,2.70
2023-02-15T10:22:04.015Z,5.38
2023-02-15T10:25:19.007Z,5.13
2023-02-15T10:28:27.578Z,4.22
2023-02-15T10:31:38.710Z,4.63
2023-02-15T10:34:51.403Z,5.20
2023-02-15T10:38:22.409Z,1.90
2023-02-15T10:41:33.392Z,4.53
2023-02-15T10:44:51.274Z,2.95
2023-02-15T10:48:15.551Z,2.38
2023-02-15T10:51:27.459Z,5.03
2023-02-15T10:54:37.351Z,4.43
2023-02-15T10:57:52.547Z,8.63
2023-02-15T11:01:00.810Z,5.88
2023-02-15T11:04:35.351Z,2.65
2023-02-15T11:07:42.270Z,4.43
2023-02-15T11:10:49.173Z,5.03
2023-02-15T11:13:57.376Z,3.70
2023-02-15T11:17:05.883Z,5.97
2023-02-15T11:20:19.745Z,3.72
2023-02-15T11:23:25.301Z,3.10
2023-02-15T11:26:34.076Z,5.30
2023-02-15T11:29:39.618Z,5.70
2023-02-15T11:32:44.490Z,4.38
2023-02-15T11:35:52.527Z,1.67
2023-02-15T11:39:00.198Z,4.43
2023-02-15T11:42:07.455Z,4.70
2023-02-15T11:45:26.924Z,2.35
2023-02-15T11:48:31.688Z,5.53
2023-02-15T11:51:33.635Z,3.70
2023-02-15T11:54:38.590Z,4.32
2023-02-15T11:57:45.404Z,5.20
2023-02-15T12:00:50.075Z,2.38
2023-02-15T12:03:56.682Z,5.68
2023-02-15T12:07:04.070Z,3.28
2023-02-15T12:10:19.523Z,4.18
2023-02-15T12:13:22.105Z,5.07
2023-02-15T12:16:24.273Z,6.13
2023-02-15T12:19:32.082Z,7.22
2023-02-15T12:22:37.350Z,6.13
2023-02-15T12:28:52.495Z,5.30
2023-02-15T12:31:55.586Z,6.65
2023-02-15T12:35:02.364Z,5.18
2023-02-15T12:38:22.129Z,4.40
2023-02-15T12:41:27.371Z,7.15
2023-02-15T12:44:31.021Z,6.55
2023-02-15T12:47:33.406Z,7.53
2023-02-15T12:50:35.350Z,5.18
2023-02-15T12:53:38.649Z,6.88
2023-02-15T12:56:41.647Z,6.10
2023-02-15T12:59:51.846Z,3.40
2023-02-15T13:02:55.518Z,4.93
2023-02-15T13:05:59.195Z,5.45
2023-02-15T13:09:14.115Z,6.43
2023-02-15T13:12:27.522Z,8.50
2023-02-15T13:15:35.363Z,4.95
2023-02-15T13:18:40.112Z,8.13
2023-02-15T13:21:45.901Z,5.55
2023-02-15T13:24:51.088Z,6.90
2023-02-15T13:30:57.894Z,7.40
2023-02-15T13:34:04.288Z,5.90
2023-02-15T13:37:16.082Z,6.22
2023-02-15T13:40:23.868Z,4.47
2023-02-15T13:43:41.251Z,6.65
2023-02-15T13:47:07.720Z,5.95
2023-02-15T13:50:23.025Z,6.53
2023-02-15T13:53:39.878Z,6.40
2023-02-15T13:57:01.960Z,6.55
2023-02-15T14:00:17.943Z,7.53
2023-02-15T14:03:48.060Z,7.85
2023-02-15T14:07:29.540Z,7.53
2023-02-15T14:10:40.701Z,7.93
2023-02-15T14:13:55.942Z,6.95
2023-02-15T14:17:07.640Z,6.53
2023-02-15T14:20:18.352Z,6.43
2023-02-15T14:23:36.992Z,5.78
2023-02-15T14:26:46.464Z,6.32
2023-02-15T14:29:52.972Z,7.25
2023-02-15T14:33:00.695Z,7.88
2023-02-15T14:36:05.053Z,8.20
2023-02-15T14:39:37.520Z,8.75
2023-02-15T14:42:45.308Z,6.32
2023-02-15T14:45:53.802Z,7.78
2023-02-15T14:49:04.510Z,7.07
2023-02-15T14:52:09.340Z,6.25
2023-02-15T14:55:11.090Z,5.95
2023-02-15T14:58:13.812Z,8.38
2023-02-15T15:01:15.705Z,6.18
2023-02-15T15:04:27.016Z,7.25
2023-02-15T15:07:36.707Z,7.57
2023-02-15T15:10:41.885Z,7.20
2023-02-15T15:13:54.431Z,7.90
2023-02-15T15:16:56.165Z,8.55
2023-02-15T15:20:01.508Z,8.20
2023-02-15T15:23:39.865Z,8.77
2023-02-15T15:26:49.980Z,8.15
2023-02-15T15:29:52.249Z,7.70
2023-02-15T15:33:02.560Z,7.05
2023-02-15T15:36:35.925Z,8.15
2023-02-15T15:40:08.471Z,6.22
2023-02-15T15:43:47.335Z,8.77
2023-02-15T15:47:21.669Z,4.00
2023-02-15T15:50:23.592Z,5.95
2023-02-15T15:53:30.573Z,9.55
2023-02-15T15:56:35.840Z,7.93
2023-02-15T16:02:51.521Z,5.22
2023-02-15T16:05:57.145Z,8.52
2023-02-15T16:09:12.080Z,7.32
2023-02-15T16:12:18.453Z,9.65
2023-02-15T16:15:24.429Z,9.75
2023-02-15T16:18:28.479Z,7.10
2023-02-15T16:21:33.050Z,8.88
2023-02-15T16:25:17.445Z,9.50
2023-02-15T16:28:21.280Z,9.45
2023-02-15T16:31:23.446Z,8.82
2023-02-15T16:34:28.892Z,8.85
2023-02-15T16:37:34.033Z,8.20
2023-02-15T16:40:47.016Z,8.30
2023-02-15T16:43:51.506Z,8.48
2023-02-15T16:46:54.997Z,9.90
2023-02-15T16:50:01.497Z,8.05
2023-02-15T16:53:06.843Z,6.85
2023-02-15T16:59:22.954Z,7.35
2023-02-15T17:02:49.755Z,11.45
2023-02-15T17:05:51.716Z,11.32
2023-02-15T17:12:48.468Z,9.32
2023-02-15T17:16:27.281Z,8.57
2023-02-15T17:19:32.033Z,10.63
2023-02-15T17:22:33.883Z,7.80
2023-02-15T17:25:40.036Z,5.80
2023-02-15T17:28:47.502Z,7.88
2023-02-15T17:31:53.418Z,7.47
2023-02-15T17:35:05.738Z,6.82
2023-02-15T17:38:18.010Z,7.25
2023-02-15T17:41:20.254Z,6.75
2023-02-15T17:44:21.919Z,8.40
2023-02-15T17:47:27.647Z,7.57
2023-02-15T17:50:29.598Z,7.63
2023-02-15T17:53:32.299Z,7.63
2023-02-15T17:56:34.325Z,9.02
2023-02-15T17:59:36.006Z,8.70
2023-02-15T18:02:58.122Z,7.50
2023-02-15T18:06:18.451Z,8.23
2023-02-15T18:09:40.401Z,7.45
2023-02-15T18:12:42.448Z,8.23
2023-02-15T18:15:44.446Z,8.75
2023-02-15T18:18:47.715Z,8.23
2023-02-15T18:21:49.860Z,8.30
2023-02-15T18:24:51.606Z,6.57
2023-02-15T18:27:55.063Z,6.32
2023-02-15T18:30:57.318Z,7.40
2023-02-15T18:34:03.098Z,8.40
2023-02-15T18:37:06.941Z,9.15
2023-02-15T18:40:15.384Z,9.63
2023-02-15T18:43:17.151Z,7.78
2023-02-15T18:46:18.864Z,7.95
2023-02-15T18:49:22.027Z,7.68
2023-02-15T18:52:28.903Z,8.38
2023-02-15T18:55:32.921Z,6.90
2023-02-15T18:58:34.682Z,7.45
2023-02-15T19:01:36.383Z,7.22
2023-02-15T19:04:39.558Z,8.13
2023-02-15T19:07:43.036Z,6.43
2023-02-15T19:10:45.906Z,8.10
2023-02-15T19:13:48.835Z,8.82
2023-02-15T19:16:50.520Z,9.10
2023-02-15T19:19:53.569Z,8.07
2023-02-15T19:22:56.967Z,7.65
2023-02-15T19:25:58.797Z,8.60
2023-02-15T19:29:02.272Z,9.15
2023-02-15T19:32:04.705Z,8.73
2023-02-15T19:35:14.388Z,7.22
2023-02-15T19:38:19.302Z,8.32
2023-02-15T19:41:24.778Z,7.90
2023-02-15T19:44:26.698Z,7.25
2023-02-15T19:47:28.689Z,7.45
2023-02-15T19:50:34.060Z,8.38
2023-02-15T19:56:37.769Z,7.18
2023-02-15T19:59:40.648Z,8.07
2023-02-15T20:02:42.557Z,7.93
2023-02-15T20:05:46.149Z,6.95
2023-02-15T20:08:48.080Z,6.25
2023-02-15T20:11:50.919Z,5.18
2023-02-15T20:14:53.410Z,5.90
2023-02-15T20:17:56.719Z,5.15
2023-02-15T20:21:01.982Z,6.93
2023-02-15T20:27:10.041Z,6.10
2023-02-15T20:30:20.247Z,7.95
2023-02-15T20:33:22.932Z,6.25
2023-02-15T20:36:26.415Z,6.35
2023-02-15T20:39:28.522Z,7.82
2023-02-15T20:42:30.493Z,6.85
2023-02-15T20:45:33.094Z,6.25
2023-02-15T20:48:35.659Z,7.60
2023-02-15T20:51:40.656Z,6.80
2023-02-15T20:54:42.376Z,7.88
2023-02-15T20:57:45.108Z,5.93
2023-02-15T21:00:47.202Z,6.05
2023-02-15T21:03:49.040Z,6.20
2023-02-15T21:06:52.244Z,6.75
2023-02-15T21:09:54.270Z,6.80
2023-02-15T21:12:57.938Z,6.53
2023-02-15T21:16:00.232Z,7.25
2023-02-15T21:19:02.143Z,6.05
2023-02-15T21:22:05.487Z,7.18
2023-02-15T21:25:13.560Z,7.05
2023-02-15T21:28:18.186Z,7.38
2023-02-15T21:31:21.814Z,7.20
2023-02-15T21:34:24.111Z,5.82
2023-02-15T21:37:34.988Z,8.20
2023-02-15T21:40:36.988Z,7.88
2023-02-15T21:43:57.174Z,7.65
2023-02-15T21:47:17.353Z,8.20
2023-02-15T21:50:40.106Z,6.75
2023-02-15T21:53:48.491Z,6.43
2023-02-15T21:56:51.474Z,6.45
2023-02-15T21:59:53.238Z,5.50
2023-02-15T22:02:58.102Z,7.50
2023-02-15T22:06:00.045Z,6.22
2023-02-15T22:09:13.141Z,6.90
2023-02-15T22:12:16.855Z,6.90
2023-02-15T22:15:20.871Z,8.85
2023-02-15T22:18:24.709Z,5.97
2023-02-15T22:21:29.648Z,6.07
2023-02-15T22:24:32.755Z,6.60
2023-02-15T22:27:38.881Z,5.72
2023-02-15T22:30:40.618Z,8.35
2023-02-15T22:33:42.308Z,8.05
2023-02-15T22:36:44.079Z,6.93
2023-02-15T22:39:47.246Z,7.05
2023-02-15T22:42:50.865Z,7.63
2023-02-15T22:45:54.957Z,8.35
2023-02-15T22:48:56.773Z,7.60
2023-02-15T22:51:58.459Z,7.38
2023-02-15T22:55:01.538Z,6.20
2023-02-15T22:58:04.133Z,8.65
2023-02-15T23:01:06.167Z,6.35
2023-02-15T23:04:15.010Z,6.65
2023-02-15T23:07:18.903Z,4.75
2023-02-15T23:10:24.940Z,6.30
2023-02-15T23:13:30.312Z,9.70
2023-02-15T23:16:32.513Z,5.15
2023-02-15T23:19:34.186Z,6.45
2023-02-15T23:22:36.181Z,6.78
2023-02-15T23:25:39.662Z,6.05
2023-02-15T23:28:41.369Z,6.03
2023-02-15T23:31:45.319Z,6.40
2023-02-15T23:34:47.109Z,6.28
2023-02-15T23:37:48.827Z,6.72
2023-02-15T23:41:13.436Z,8.70
2023-02-15T23:44:15.078Z,6.32
2023-02-15T23:47:41.869Z,6.15
2023-02-15T23:50:43.770Z,4.78
2023-02-15T23:53:45.774Z,6.30
2023-02-15T23:56:52.520Z,4.80
2023-02-15T23:59:54.209Z,5.47
